Map

Track Data

SID SEASON NUMBER BASIN SUBBASIN NAME ISO_TIME NATURE LAT LON WMO_WIND WMO_PRES WMO_AGENCY TRACK_TYPE DIST2LAND LANDFALL IFLAG USA_AGENCY USA_ATCF_ID USA_LAT USA_LON USA_RECORD USA_STATUS USA_WIND USA_PRES USA_SSHS USA_R34_NE USA_R34_SE USA_R34_SW USA_R34_NW USA_R50_NE USA_R50_SE USA_R50_SW USA_R50_NW USA_R64_NE USA_R64_SE USA_R64_SW USA_R64_NW USA_POCI USA_ROCI USA_RMW USA_EYE TOKYO_LAT TOKYO_LON TOKYO_GRADE TOKYO_WIND TOKYO_PRES TOKYO_R50_DIR TOKYO_R50_LONG TOKYO_R50_SHORT TOKYO_R30_DIR TOKYO_R30_LONG TOKYO_R30_SHORT TOKYO_LAND CMA_LAT CMA_LON CMA_CAT CMA_WIND CMA_PRES HKO_LAT HKO_LON HKO_CAT HKO_WIND HKO_PRES NEWDELHI_LAT NEWDELHI_LON NEWDELHI_GRADE NEWDELHI_WIND NEWDELHI_PRES NEWDELHI_CI NEWDELHI_DP NEWDELHI_POCI REUNION_LAT REUNION_LON REUNION_TYPE REUNION_WIND REUNION_PRES REUNION_TNUM REUNION_CI REUNION_RMW REUNION_R34_NE REUNION_R34_SE REUNION_R34_SW REUNION_R34_NW REUNION_R50_NE REUNION_R50_SE REUNION_R50_SW REUNION_R50_NW REUNION_R64_NE REUNION_R64_SE REUNION_R64_SW REUNION_R64_NW BOM_LAT BOM_LON BOM_TYPE BOM_WIND BOM_PRES BOM_TNUM BOM_CI BOM_RMW BOM_R34_NE BOM_R34_SE BOM_R34_SW BOM_R34_NW BOM_R50_NE BOM_R50_SE BOM_R50_SW BOM_R50_NW BOM_R64_NE BOM_R64_SE BOM_R64_SW BOM_R64_NW BOM_ROCI BOM_POCI BOM_EYE BOM_POS_METHOD BOM_PRES_METHOD NADI_LAT NADI_LON NADI_CAT NADI_WIND NADI_PRES WELLINGTON_LAT WELLINGTON_LON WELLINGTON_WIND WELLINGTON_PRES DS824_LAT DS824_LON DS824_STAGE DS824_WIND DS824_PRES TD9636_LAT TD9636_LON TD9636_STAGE TD9636_WIND TD9636_PRES TD9635_LAT TD9635_LON TD9635_WIND TD9635_PRES TD9635_ROCI NEUMANN_LAT NEUMANN_LON NEUMANN_CLASS NEUMANN_WIND NEUMANN_PRES MLC_LAT MLC_LON MLC_CLASS MLC_WIND MLC_PRES USA_GUST BOM_GUST BOM_GUST_PER REUNION_GUST REUNION_GUST_PER USA_SEAHGT USA_SEARAD_NE USA_SEARAD_SE USA_SEARAD_SW USA_SEARAD_NW STORM_SPEED STORM_DIR
1999233N32152 1999 67 WP MM NOT_NAMED 1999-08-20 18:00:00 NR 32.1000 151.900 main 1088 1050 O_____________ jtwc_wp WP181999 32.1000 151.900 20 -1 8 285
1999233N32152 1999 67 WP MM NOT_NAMED 1999-08-20 21:00:00 NR 32.2054 151.440 main 1041 1002 P_____________ WP181999 32.2054 151.440 20 -1 8 285
1999233N32152 1999 67 WP MM NOT_NAMED 1999-08-21 00:00:00 NR 32.3000 151.000 main 1002 964 O_____________ jtwc_wp WP181999 32.3000 151.000 20 -1 7 284
1999233N32152 1999 67 WP MM NOT_NAMED 1999-08-21 03:00:00 NR 32.3848 150.592 main 964 925 P_____________ WP181999 32.3848 150.592 20 -1 7 286
1999233N32152 1999 67 WP MM NOT_NAMED 1999-08-21 06:00:00 NR 32.5000 150.200 main 925 882 O_____________ jtwc_wp WP181999 32.5000 150.200 20 -1 7 295
1999233N32152 1999 67 WP MM NOT_NAMED 1999-08-21 09:00:00 NR 32.6924 149.793 main 882 838 P_____________ WP181999 32.6924 149.793 20 -1 8 301
1999233N32152 1999 67 WP MM NOT_NAMED 1999-08-21 12:00:00 NR 32.9000 149.400 main 838 808 O_____________ jtwc_wp WP181999 32.9000 149.400 20 -1 7 299
1999233N32152 1999 67 WP MM NOT_NAMED 1999-08-21 15:00:00 NR 33.0423 149.050 main 800 765 P_____________ WP181999 33.0423 149.050 22 -1 7 297
1999233N32152 1999 67 WP MM NOT_NAMED 1999-08-21 18:00:00 NR 33.2000 148.700 main 765 722 O_____________ jtwc_wp WP181999 33.2000 148.700 25 -1 7 302
1999233N32152 1999 67 WP MM NOT_NAMED 1999-08-21 21:00:00 NR 33.4349 148.308 main 722 676 P_____________ WP181999 33.4349 148.308 25 -1 8 307
1999233N32152 1999 67 WP MM NOT_NAMED 1999-08-22 00:00:00 NR 33.7000 147.900 main 676 633 O_____________ jtwc_wp WP181999 33.7000 147.900 25 -1 9 308
1999233N32152 1999 67 WP MM NOT_NAMED 1999-08-22 03:00:00 NR 33.9574 147.492 main 629 587 P_____________ WP181999 33.9574 147.492 27 -1 8 307
1999233N32152 1999 67 WP MM NOT_NAMED 1999-08-22 06:00:00 NR 34.2000 147.100 main 587 546 O_____________ jtwc_wp WP181999 34.2000 147.100 30 -1 8 305
1999233N32152 1999 67 WP MM NOT_NAMED 1999-08-22 09:00:00 NR 34.4074 146.727 main 546 513 P_____________ WP181999 34.4074 146.727 27 -1 7 305
1999233N32152 1999 67 WP MM NOT_NAMED 1999-08-22 12:00:00 NR 34.6000 146.400 main 513 481 O_____________ jtwc_wp WP181999 34.6000 146.400 25 -1 6 308
1999233N32152 1999 67 WP MM NOT_NAMED 1999-08-22 15:00:00 NR 34.8074 146.112 main 481 459 P_____________ WP181999 34.8074 146.112 25 -1 6 314
1999233N32152 1999 67 WP MM NOT_NAMED 1999-08-22 18:00:00 NR 35.0000 145.900 main 459 448 O_____________ jtwc_wp WP181999 35.0000 145.900 25 -1 4 320
1999233N32152 1999 67 WP MM NOT_NAMED 1999-08-22 21:00:00 NR 35.1424 145.770 main 448 435 P_____________ WP181999 35.1424 145.770 25 -1 3 332
1999233N32152 1999 67 WP MM NOT_NAMED 1999-08-23 00:00:00 NR 35.3000 145.700 main 435 424 O_____________ jtwc_wp WP181999 35.3000 145.700 25 -1 4 345
1999233N32152 1999 67 WP MM NOT_NAMED 1999-08-23 03:00:00 NR 35.5500 145.635 main 424 423 P_____________ WP181999 35.5500 145.635 25 -1 5 351
1999233N32152 1999 67 WP MM NOT_NAMED 1999-08-23 06:00:00 NR 35.8000 145.600 main 423 423 O_____________ jtwc_wp WP181999 35.8000 145.600 25 -1 4 355
1999233N32152 1999 67 WP MM NOT_NAMED 1999-08-23 09:00:00 NR 35.9650 145.578 main 423 421 P_____________ WP181999 35.9650 145.578 25 -1 3 0
1999233N32152 1999 67 WP MM NOT_NAMED 1999-08-23 12:00:00 NR 36.1000 145.600 main 421 419 O_____________ jtwc_wp WP181999 36.1000 145.600 25 -1 3 16
1999233N32152 1999 67 WP MM NOT_NAMED 1999-08-23 15:00:00 NR 36.2500 145.670 main 427 425 P_____________ WP181999 36.2500 145.670 25 -1 3 28
1999233N32152 1999 67 WP MM NOT_NAMED 1999-08-23 18:00:00 NR 36.4000 145.800 main 432 432 O_____________ jtwc_wp WP181999 36.4000 145.800 25 -1 4 39
1999233N32152 1999 67 WP MM NOT_NAMED 1999-08-23 21:00:00 NR 36.5349 145.963 main 444 439 P_____________ WP181999 36.5349 145.963 25 -1 4 47
1999233N32152 1999 67 WP MM NOT_NAMED 1999-08-24 00:00:00 NR 36.7000 146.200 main 450 450 O_____________ jtwc_wp WP181999 36.7000 146.200 25 -1 6 50
1999233N32152 1999 67 WP MM NOT_NAMED 1999-08-24 03:00:00 NR 36.9050 146.520 main 466 466 P_____________ WP181999 36.9050 146.520 22 -1 8 48
1999233N32152 1999 67 WP MM NOT_NAMED 1999-08-24 06:00:00 NR 37.2000 146.900 main 488 488 O_____________ jtwc_wp WP181999 37.2000 146.900 20 -1 9 42
1999233N32152 1999 67 WP MM NOT_NAMED 1999-08-24 09:00:00 NR 37.5672 147.271 main 497 497 P_____________ WP181999 37.5672 147.271 17 -1 11 35
1999233N32152 1999 67 WP MM NOT_NAMED 1999-08-24 12:00:00 NR 38.1000 147.700 main 508 508 O_____________ jtwc_wp WP181999 38.1000 147.700 15 -1 15 30
1999233N32152 1999 67 WP MM NOT_NAMED 1999-08-24 15:00:00 NR 38.8407 148.219 main 530 476 P_____________ WP181999 38.8407 148.219 15 -1 18 28
1999233N32152 1999 67 WP MM NOT_NAMED 1999-08-24 18:00:00 NR 39.7000 148.800 main 476 O_____________ jtwc_wp WP181999 39.7000 148.800 15 -1 19 28

Digital Typhoon Data and Search

About IBTrACS Database

This database is a web-friendly format of International Best Track Archive for Climate Stewardship (IBTrACS), a global best track data archive curated by NOAA dating back to 1842.

Updated: 2021-10-21